Time;durP1;ratioP1;P1;durP2;ratioP2;P2;SDS_P1;SDS_P2;PMS_P1;PMS_P2;Temp;Humidity;BMP_temperature;BMP_pressure;BME280_temperature;BME280_humidity;BME280_pressure;Samples;Min_cycle;Max_cycle;Signal;HPM_P1;HPM_P2
2024/04/20 00:00:12;;;;;;;2.10;0.30;;;6.20;99.90;;;;;;5286512;27;20005;-84
2024/04/20 00:02:41;;;;;;;0.60;0.30;;;6.20;99.90;;;;;;5281242;27;20014;-82
2024/04/20 00:05:08;;;;;;;2.63;0.50;;;6.10;99.90;;;;;;5249508;27;20006;-83
2024/04/20 00:07:35;;;;;;;0.60;0.25;;;6.10;99.90;;;;;;5297842;27;20013;-84
2024/04/20 00:10:03;;;;;;;3.42;0.70;;;6.10;99.90;;;;;;5307877;26;20089;-83
2024/04/20 00:12:30;;;;;;;1.33;0.40;;;6.10;99.90;;;;;;5272211;27;20010;-83
2024/04/20 00:14:57;;;;;;;1.10;0.30;;;6.10;99.90;;;;;;5322281;26;20006;-83
2024/04/20 00:17:24;;;;;;;1.27;0.40;;;6.10;99.90;;;;;;5274743;27;20407;-83
2024/04/20 00:19:55;;;;;;;1.67;0.50;;;6.00;99.90;;;;;;5289092;27;20008;-84
2024/04/20 00:22:22;;;;;;;3.00;0.45;;;6.00;99.90;;;;;;5301896;27;20331;-84
2024/04/20 00:24:50;;;;;;;0.73;0.20;;;6.10;99.90;;;;;;5263972;27;20011;-83
2024/04/20 00:27:17;;;;;;;0.70;0.22;;;6.10;99.90;;;;;;5277980;27;20010;-84
2024/04/20 00:29:45;;;;;;;0.90;0.30;;;6.20;99.90;;;;;;5264770;27;20009;-84
2024/04/20 00:32:12;;;;;;;1.80;0.32;;;6.20;99.90;;;;;;5275289;27;20451;-83
2024/04/20 00:34:39;;;;;;;1.65;0.50;;;6.20;99.90;;;;;;5293635;27;20012;-84
2024/04/20 00:37:06;;;;;;;1.90;0.60;;;6.20;99.90;;;;;;5310414;26;20010;-84
2024/04/20 00:39:34;;;;;;;2.35;0.50;;;6.20;99.90;;;;;;5260641;27;20010;-84
2024/04/20 00:42:02;;;;;;;0.88;0.40;;;6.20;99.90;;;;;;5262451;27;20010;-85
2024/04/20 00:44:29;;;;;;;0.63;0.30;;;6.20;99.90;;;;;;5288392;26;20019;-87
2024/04/20 00:47:01;;;;;;;1.13;0.30;;;6.10;99.90;;;;;;5292818;27;20001;-84
2024/04/20 00:49:33;;;;;;;1.55;0.50;;;6.10;99.90;;;;;;5278044;27;20010;-84
2024/04/20 00:52:05;;;;;;;1.05;0.40;;;6.10;99.90;;;;;;5248809;27;19998;-84
2024/04/20 00:54:35;;;;;;;;;;;6.00;99.90;;;;;;5284929;26;20002;-84
2024/04/20 00:57:05;;;;;;;2.15;0.30;;;6.00;99.90;;;;;;5282500;27;19952;-84
2024/04/20 00:59:33;;;;;;;1.00;0.40;;;6.00;99.90;;;;;;5238655;27;20010;-84
2024/04/20 01:02:02;;;;;;;1.27;0.35;;;6.00;99.90;;;;;;5270835;27;20007;-84
2024/04/20 01:04:29;;;;;;;2.15;0.40;;;6.00;99.90;;;;;;5266572;27;20014;-85
2024/04/20 01:06:56;;;;;;;1.63;0.40;;;6.00;99.90;;;;;;5238236;27;20031;-83
2024/04/20 01:09:24;;;;;;;0.90;0.60;;;5.90;99.90;;;;;;5284244;27;20008;-84
2024/04/20 01:11:51;;;;;;;1.83;0.30;;;6.00;99.90;;;;;;5245941;27;20010;-84
2024/04/20 01:14:18;;;;;;;0.90;0.20;;;5.90;99.90;;;;;;5317145;26;20661;-83
2024/04/20 01:16:45;;;;;;;1.27;0.20;;;6.00;99.90;;;;;;5276211;27;20039;-84
2024/04/20 01:19:21;;;;;;;2.22;0.20;;;6.00;99.90;;;;;;5221099;27;20023;-84
2024/04/20 01:21:48;;;;;;;0.40;0.20;;;6.00;99.90;;;;;;5282660;27;20072;-84
2024/04/20 01:24:17;;;;;;;0.73;0.20;;;6.00;99.90;;;;;;5286584;27;20012;-83
2024/04/20 01:26:44;;;;;;;0.65;0.20;;;6.00;99.90;;;;;;5285419;26;20002;-84
2024/04/20 01:29:12;;;;;;;2.15;0.28;;;6.00;99.90;;;;;;5220577;27;20010;-84
2024/04/20 01:31:39;;;;;;;2.58;0.30;;;6.00;99.90;;;;;;5248361;27;20370;-84
2024/04/20 01:34:07;;;;;;;0.57;0.20;;;6.00;99.90;;;;;;5237774;27;20031;-83
2024/04/20 01:36:34;;;;;;;0.68;0.20;;;6.00;99.90;;;;;;5263154;27;20002;-83
2024/04/20 01:39:01;;;;;;;0.38;0.25;;;6.00;99.90;;;;;;5276198;27;20017;-83
2024/04/20 01:41:32;;;;;;;1.13;0.20;;;6.00;99.90;;;;;;5225298;27;20088;-83
2024/04/20 01:43:59;;;;;;;1.85;0.30;;;6.00;99.90;;;;;;5279197;27;20002;-83
2024/04/20 01:46:26;;;;;;;0.70;0.30;;;6.00;99.90;;;;;;5334857;26;20048;-82
2024/04/20 01:48:53;;;;;;;0.65;0.28;;;6.00;99.90;;;;;;5330243;26;20446;-83
2024/04/20 01:51:20;;;;;;;0.98;0.30;;;5.90;99.90;;;;;;5297502;27;20034;-82
2024/04/20 01:53:47;;;;;;;0.47;0.10;;;5.90;99.90;;;;;;5279368;27;20022;-83
2024/04/20 01:56:16;;;;;;;0.45;0.10;;;5.90;99.90;;;;;;5310327;26;20014;-83
2024/04/20 01:58:43;;;;;;;1.35;0.22;;;6.00;99.90;;;;;;5305499;27;20010;-82
2024/04/20 02:01:13;;;;;;;0.43;0.20;;;6.00;99.90;;;;;;5288714;27;20014;-83
2024/04/20 02:03:40;;;;;;;2.03;0.40;;;6.00;99.90;;;;;;5298073;27;20016;-82
2024/04/20 02:06:08;;;;;;;0.47;0.10;;;6.00;99.90;;;;;;5278880;27;20017;-82
2024/04/20 02:08:35;;;;;;;1.27;0.20;;;5.90;99.90;;;;;;5279128;27;20072;-84
2024/04/20 02:11:03;;;;;;;1.30;0.20;;;5.90;99.90;;;;;;5283223;26;20078;-83
2024/04/20 02:13:30;;;;;;;0.60;0.17;;;5.90;99.90;;;;;;5251373;27;20005;-82
2024/04/20 02:15:57;;;;;;;0.85;0.20;;;6.00;99.90;;;;;;5278959;27;20014;-82
2024/04/20 02:18:25;;;;;;;0.88;0.10;;;6.00;99.90;;;;;;5245736;27;19999;-82
2024/04/20 02:20:52;;;;;;;1.30;0.30;;;5.90;99.90;;;;;;5217348;27;20078;-82
2024/04/20 02:23:19;;;;;;;0.88;0.38;;;5.90;99.90;;;;;;5300172;27;20011;-83
2024/04/20 02:25:46;;;;;;;1.75;0.30;;;5.90;99.90;;;;;;5271567;26;20002;-83
2024/04/20 02:28:17;;;;;;;2.50;0.20;;;5.80;99.90;;;;;;5246886;27;20084;-83
2024/04/20 02:30:44;;;;;;;1.15;0.30;;;5.80;99.90;;;;;;5261964;27;20049;-84
2024/04/20 02:33:11;;;;;;;2.92;0.40;;;5.80;99.90;;;;;;5262862;27;20454;-83
2024/04/20 02:35:39;;;;;;;0.63;0.10;;;5.80;99.90;;;;;;5255628;27;20014;-83
2024/04/20 02:38:06;;;;;;;0.95;0.20;;;5.70;99.90;;;;;;5251179;27;20018;-84
2024/04/20 02:40:33;;;;;;;2.05;0.20;;;5.70;99.90;;;;;;5300540;27;19997;-84
2024/04/20 02:43:01;;;;;;;1.00;0.40;;;5.70;99.90;;;;;;5306629;27;20001;-83
2024/04/20 02:45:28;;;;;;;1.27;0.30;;;5.70;99.90;;;;;;5303922;27;19997;-82
2024/04/20 02:47:55;;;;;;;0.73;0.30;;;5.70;99.90;;;;;;5278597;27;20003;-83
2024/04/20 02:50:22;;;;;;;0.60;0.20;;;5.70;99.90;;;;;;5226489;27;20448;-83
2024/04/20 02:52:50;;;;;;;0.98;0.20;;;5.70;99.90;;;;;;5250881;27;20109;-84
2024/04/20 02:55:17;;;;;;;1.02;0.43;;;5.70;99.90;;;;;;5201942;27;20460;-83
2024/04/20 02:57:46;;;;;;;1.38;0.22;;;5.70;99.90;;;;;;5214880;27;20014;-83
2024/04/20 03:00:13;;;;;;;1.45;0.20;;;5.80;99.90;;;;;;5283519;26;20460;-83
2024/04/20 03:02:42;;;;;;;0.80;0.10;;;5.80;99.90;;;;;;5284126;26;20072;-83
2024/04/20 03:05:12;;;;;;;2.50;0.20;;;5.80;99.90;;;;;;5295276;27;20057;-83
2024/04/20 03:07:39;;;;;;;1.45;0.20;;;5.90;99.90;;;;;;5306415;27;20237;-83
2024/04/20 03:10:06;;;;;;;0.60;0.22;;;5.90;99.90;;;;;;5244545;27;20526;-83
2024/04/20 03:12:34;;;;;;;0.98;0.20;;;5.80;99.90;;;;;;5280004;27;20462;-83
2024/04/20 03:15:01;;;;;;;1.48;0.30;;;5.90;99.90;;;;;;5278095;27;20007;-83
2024/04/20 03:17:30;;;;;;;1.05;0.17;;;5.90;99.90;;;;;;5201277;27;20015;-83
2024/04/20 03:19:57;;;;;;;2.92;0.20;;;5.90;99.90;;;;;;5296395;27;20031;-83
2024/04/20 03:22:24;;;;;;;3.67;0.20;;;5.90;99.90;;;;;;5282862;27;20010;-84
2024/04/20 03:24:52;;;;;;;1.40;0.10;;;5.80;99.90;;;;;;5199452;27;20006;-83
2024/04/20 03:27:19;;;;;;;0.98;0.20;;;5.80;99.90;;;;;;5250047;27;20035;-83
2024/04/20 03:29:46;;;;;;;2.50;0.20;;;5.80;99.90;;;;;;5250375;27;20042;-84
2024/04/20 03:32:15;;;;;;;0.30;0.10;;;5.80;99.90;;;;;;5291229;27;20076;-84
2024/04/20 03:34:43;;;;;;;1.52;0.20;;;5.80;99.90;;;;;;5262629;27;20008;-84
2024/04/20 03:37:19;;;;;;;0.88;0.10;;;5.70;99.90;;;;;;5250487;27;20083;-83
2024/04/20 03:39:47;;;;;;;2.42;0.20;;;5.70;99.90;;;;;;5277441;27;20006;-84
2024/04/20 03:42:14;;;;;;;1.60;0.20;;;5.70;99.90;;;;;;5271831;27;20002;-83
2024/04/20 03:44:43;;;;;;;2.47;0.22;;;5.70;99.90;;;;;;5329880;26;20005;-83
2024/04/20 03:47:10;;;;;;;4.63;0.20;;;5.70;99.90;;;;;;5294629;27;20006;-83
2024/04/20 03:49:37;;;;;;;1.30;0.20;;;5.70;99.90;;;;;;5224902;27;20002;-83
2024/04/20 03:52:04;;;;;;;0.65;0.10;;;5.70;99.90;;;;;;5294382;27;20405;-84
2024/04/20 03:54:34;;;;;;;1.02;0.10;;;5.60;99.90;;;;;;5266355;27;20006;-84
2024/04/20 03:57:01;;;;;;;0.40;0.10;;;5.60;99.90;;;;;;5282746;27;20417;-83
2024/04/20 03:59:29;;;;;;;1.35;0.20;;;5.60;99.90;;;;;;5273279;27;20333;-82
2024/04/20 04:01:56;;;;;;;1.02;0.10;;;5.60;99.90;;;;;;5295021;27;20010;-82
2024/04/20 04:04:24;;;;;;;1.73;0.60;;;5.60;99.90;;;;;;5284138;27;20007;-83
2024/04/20 04:06:51;;;;;;;3.08;0.30;;;5.60;99.90;;;;;;5289408;27;20347;-82
2024/04/20 04:09:18;;;;;;;5.45;0.30;;;5.50;99.90;;;;;;5267533;27;20002;-83
2024/04/20 04:11:46;;;;;;;2.30;0.20;;;5.50;99.90;;;;;;5277690;27;20002;-84
2024/04/20 04:14:13;;;;;;;0.45;0.20;;;5.50;99.90;;;;;;5291972;27;20018;-82
2024/04/20 04:16:40;;;;;;;0.55;0.10;;;5.50;99.90;;;;;;5218629;27;20085;-83
2024/04/20 04:19:07;;;;;;;3.13;0.30;;;5.50;99.90;;;;;;5284212;27;20018;-84
2024/04/20 04:21:34;;;;;;;1.38;0.20;;;5.50;99.90;;;;;;5278813;27;20039;-83
2024/04/20 04:24:01;;;;;;;1.67;0.20;;;5.50;99.90;;;;;;5261727;27;20362;-83
2024/04/20 04:26:29;;;;;;;1.73;0.20;;;5.50;99.90;;;;;;5299814;27;20021;-83
2024/04/20 04:28:56;;;;;;;0.60;0.17;;;5.50;99.90;;;;;;5277083;27;20105;-83
2024/04/20 04:31:25;;;;;;;1.15;0.20;;;5.60;99.90;;;;;;5243421;27;20014;-83
2024/04/20 04:33:52;;;;;;;3.45;0.30;;;5.60;99.90;;;;;;5235546;27;20518;-83
2024/04/20 04:36:19;;;;;;;0.95;0.00;;;5.70;99.90;;;;;;5294044;27;20072;-83
2024/04/20 04:38:46;;;;;;;1.52;0.10;;;5.70;99.90;;;;;;5276800;27;20080;-83
2024/04/20 04:41:16;;;;;;;4.30;0.30;;;5.70;99.90;;;;;;5287389;26;20033;-82
2024/04/20 04:43:46;;;;;;;1.88;0.30;;;5.80;99.90;;;;;;5272184;27;20077;-82
2024/04/20 04:46:17;;;;;;;2.78;0.30;;;5.80;99.90;;;;;;5274949;27;20002;-82
2024/04/20 04:48:44;;;;;;;1.75;0.45;;;5.80;99.90;;;;;;5278352;27;20017;-82
2024/04/20 04:51:11;;;;;;;3.47;0.30;;;5.80;99.90;;;;;;5305333;26;20010;-83
2024/04/20 04:53:38;;;;;;;1.65;0.20;;;5.80;99.90;;;;;;5259547;27;20465;-83
2024/04/20 04:56:05;;;;;;;3.05;0.28;;;5.80;99.90;;;;;;5283545;27;20463;-83
2024/04/20 04:58:32;;;;;;;3.03;0.40;;;5.70;99.90;;;;;;5264210;27;20006;-83
2024/04/20 05:00:59;;;;;;;1.77;0.40;;;5.70;99.90;;;;;;5285509;27;20030;-82
2024/04/20 05:03:26;;;;;;;1.35;0.20;;;5.70;99.90;;;;;;5276374;27;20003;-83
2024/04/20 05:05:54;;;;;;;3.53;0.60;;;5.70;99.90;;;;;;5238567;27;20018;-83
2024/04/20 05:08:21;;;;;;;2.25;0.20;;;5.70;99.90;;;;;;5284177;27;20006;-83
2024/04/20 05:10:48;;;;;;;2.58;0.20;;;5.80;99.90;;;;;;5302100;27;20458;-83
2024/04/20 05:13:15;;;;;;;3.17;0.40;;;5.80;99.90;;;;;;5285510;27;20007;-83
2024/04/20 05:15:42;;;;;;;1.30;0.35;;;5.80;99.90;;;;;;5298298;27;20075;-83
2024/04/20 05:18:13;;;;;;;1.40;0.10;;;5.90;99.90;;;;;;5294201;27;20020;-83
2024/04/20 05:20:40;;;;;;;2.72;0.10;;;5.90;99.90;;;;;;5243037;27;20450;-83
2024/04/20 05:23:07;;;;;;;2.47;0.10;;;5.90;99.90;;;;;;5260593;27;20336;-83
2024/04/20 05:25:34;;;;;;;1.48;0.17;;;5.90;99.90;;;;;;5279480;27;20046;-83
2024/04/20 05:28:01;;;;;;;1.02;0.40;;;5.90;99.90;;;;;;5325473;26;20424;-83
2024/04/20 05:30:29;;;;;;;1.20;0.10;;;5.90;99.90;;;;;;5260063;27;20005;-83
2024/04/20 05:32:56;;;;;;;1.95;1.45;;;5.90;99.90;;;;;;5284022;27;20017;-84
2024/04/20 05:35:24;;;;;;;1.00;0.15;;;5.90;99.90;;;;;;5304469;27;20005;-83
2024/04/20 05:37:51;;;;;;;1.65;0.10;;;6.00;99.90;;;;;;5224500;27;20006;-83
2024/04/20 05:40:18;;;;;;;0.40;0.00;;;6.00;99.90;;;;;;5281274;27;20017;-83
2024/04/20 05:42:53;;;;;;;2.10;0.40;;;6.00;99.90;;;;;;5264388;27;20006;-83
2024/04/20 05:45:25;;;;;;;1.48;0.20;;;6.10;99.90;;;;;;5280700;27;20765;-83
2024/04/20 05:47:52;;;;;;;2.10;0.57;;;6.10;99.90;;;;;;5231040;27;20005;-83
2024/04/20 05:50:22;;;;;;;1.02;0.25;;;6.10;99.90;;;;;;5279864;27;20001;-84
2024/04/20 05:52:49;;;;;;;2.78;0.57;;;6.10;99.90;;;;;;5258353;27;20002;-83
2024/04/20 05:55:17;;;;;;;1.48;0.20;;;6.10;99.90;;;;;;5307641;27;20009;-83
2024/04/20 05:57:44;;;;;;;1.58;0.20;;;6.10;99.90;;;;;;5251192;27;20014;-83
2024/04/20 06:00:12;;;;;;;1.85;0.20;;;6.00;99.90;;;;;;5285867;27;20002;-84
2024/04/20 06:02:41;;;;;;;1.55;0.20;;;6.00;99.90;;;;;;5311010;27;20045;-83
2024/04/20 06:05:08;;;;;;;2.03;0.50;;;6.00;99.90;;;;;;5296312;27;20003;-83
2024/04/20 06:07:36;;;;;;;1.00;0.10;;;6.00;99.90;;;;;;5223872;27;20006;-83
2024/04/20 06:10:03;;;;;;;1.95;0.20;;;6.00;99.90;;;;;;5278672;27;20006;-84
2024/04/20 06:12:31;;;;;;;1.42;0.10;;;6.00;99.90;;;;;;5276440;27;20018;-83
2024/04/20 06:14:58;;;;;;;2.80;0.20;;;6.10;99.90;;;;;;5252918;27;20014;-83
2024/04/20 06:17:25;;;;;;;1.13;0.25;;;6.10;99.90;;;;;;5285726;27;20017;-83
2024/04/20 06:19:52;;;;;;;0.52;0.10;;;6.20;99.90;;;;;;5285374;27;20014;-83
2024/04/20 06:22:19;;;;;;;0.57;0.10;;;6.30;99.90;;;;;;5314020;26;20043;-83
2024/04/20 06:24:48;;;;;;;1.65;0.10;;;6.40;99.90;;;;;;5297741;27;20205;-83
2024/04/20 06:27:15;;;;;;;0.30;0.10;;;6.50;99.90;;;;;;5220451;27;20460;-84
2024/04/20 06:29:42;;;;;;;1.23;0.10;;;6.60;99.90;;;;;;5294947;27;20446;-84
2024/04/20 06:32:09;;;;;;;2.80;0.10;;;6.70;99.90;;;;;;5286377;27;20006;-83
2024/04/20 06:34:36;;;;;;;4.28;0.28;;;6.80;99.90;;;;;;5300476;27;20084;-83
2024/04/20 06:37:03;;;;;;;4.97;0.22;;;6.90;99.90;;;;;;5295898;27;20088;-84
2024/04/20 06:39:32;;;;;;;0.30;0.00;;;6.90;99.90;;;;;;5291023;26;20001;-83
2024/04/20 06:42:00;;;;;;;0.60;0.05;;;6.90;99.90;;;;;;5309051;26;20042;-84
2024/04/20 06:44:27;;;;;;;1.67;0.13;;;6.90;99.90;;;;;;5290106;27;20013;-83
2024/04/20 06:46:55;;;;;;;1.85;0.20;;;6.90;99.90;;;;;;5300583;26;20013;-83
2024/04/20 06:49:22;;;;;;;2.97;0.22;;;6.90;99.90;;;;;;5262836;27;20014;-83
2024/04/20 06:51:49;;;;;;;0.85;0.10;;;6.90;99.90;;;;;;5262975;27;20350;-82
2024/04/20 06:54:16;;;;;;;1.88;0.20;;;7.00;99.90;;;;;;5281686;27;20014;-82
2024/04/20 06:56:43;;;;;;;1.83;0.20;;;7.20;99.90;;;;;;5276865;27;20073;-83
2024/04/20 06:59:10;;;;;;;1.63;0.30;;;7.30;99.90;;;;;;5266925;27;20013;-84
2024/04/20 07:01:37;;;;;;;3.33;0.28;;;7.40;99.90;;;;;;5289430;27;20138;-84
2024/04/20 07:04:07;;;;;;;5.68;0.50;;;7.50;99.90;;;;;;5288894;27;20475;-84
2024/04/20 07:06:34;;;;;;;5.97;0.35;;;7.50;99.90;;;;;;5217133;27;20014;-83
2024/04/20 07:09:04;;;;;;;2.80;0.50;;;7.60;99.90;;;;;;5267509;27;20006;-84
2024/04/20 07:11:31;;;;;;;0.90;0.10;;;7.70;99.90;;;;;;5301471;26;20002;-84
2024/04/20 07:13:59;;;;;;;0.88;0.20;;;7.70;99.90;;;;;;5286843;27;20041;-83
2024/04/20 07:16:26;;;;;;;3.75;0.40;;;7.60;99.90;;;;;;5305435;26;20035;-84
2024/04/20 07:18:53;;;;;;;2.03;0.20;;;7.50;99.90;;;;;;5212363;27;20017;-84
2024/04/20 07:21:20;;;;;;;1.15;0.28;;;7.40;99.90;;;;;;5293571;27;20283;-84
2024/04/20 07:23:47;;;;;;;1.27;0.43;;;7.30;99.90;;;;;;5256879;27;20013;-84
2024/04/20 07:26:14;;;;;;;1.38;0.20;;;7.30;99.90;;;;;;5268358;27;20002;-83
2024/04/20 07:28:42;;;;;;;0.47;0.10;;;7.30;99.90;;;;;;5233816;27;20368;-83
2024/04/20 07:31:12;;;;;;;1.23;0.17;;;7.40;99.90;;;;;;5229693;27;20039;-83
2024/04/20 07:33:40;;;;;;;1.85;0.20;;;7.40;99.90;;;;;;5299901;27;20014;-84
2024/04/20 07:36:07;;;;;;;0.40;0.20;;;7.40;99.90;;;;;;5286710;26;20011;-84
2024/04/20 07:38:36;;;;;;;1.35;0.30;;;7.40;99.90;;;;;;5300454;27;20002;-84
2024/04/20 07:41:03;;;;;;;0.85;0.20;;;7.40;99.90;;;;;;5256072;27;20012;-84
2024/04/20 07:43:31;;;;;;;0.90;0.08;;;7.50;99.90;;;;;;5293586;27;20003;-83
2024/04/20 07:45:59;;;;;;;0.77;0.10;;;7.50;99.90;;;;;;5243876;27;20452;-84
2024/04/20 07:48:26;;;;;;;1.13;0.20;;;7.50;99.90;;;;;;5294575;27;20011;-84
2024/04/20 07:50:53;;;;;;;3.92;0.30;;;7.40;99.90;;;;;;5288692;27;20009;-83
2024/04/20 07:53:21;;;;;;;0.80;0.10;;;7.40;99.90;;;;;;5244154;27;20018;-83
2024/04/20 07:55:48;;;;;;;1.10;0.20;;;7.40;99.90;;;;;;5274125;27;20079;-83
2024/04/20 07:58:15;;;;;;;3.33;0.30;;;7.50;99.90;;;;;;5251200;27;20074;-82
2024/04/20 08:00:42;;;;;;;2.30;0.35;;;7.50;99.90;;;;;;5288734;27;19998;-82
2024/04/20 08:03:11;;;;;;;2.28;0.30;;;7.70;99.90;;;;;;5312175;26;20010;-83
2024/04/20 08:05:38;;;;;;;0.52;0.17;;;7.90;99.90;;;;;;5283143;27;20025;-82
2024/04/20 08:08:05;;;;;;;2.15;0.40;;;8.20;99.90;;;;;;5251531;27;19999;-82
2024/04/20 08:10:32;;;;;;;3.53;0.40;;;8.50;99.90;;;;;;5243799;27;20013;-82
2024/04/20 08:12:59;;;;;;;5.53;0.43;;;8.60;99.90;;;;;;5292303;27;20014;-81
2024/04/20 08:15:27;;;;;;;1.48;0.25;;;8.70;99.90;;;;;;5255636;27;20018;-83
2024/04/20 08:17:54;;;;;;;2.88;0.22;;;8.70;99.90;;;;;;5243643;27;20007;-81
2024/04/20 08:20:22;;;;;;;1.73;0.28;;;8.70;99.90;;;;;;5259051;27;20005;-80
2024/04/20 08:22:49;;;;;;;5.65;0.38;;;8.60;99.90;;;;;;5313186;26;20002;-81
2024/04/20 08:25:16;;;;;;;2.13;0.43;;;8.40;99.90;;;;;;5288626;27;20016;-83
2024/04/20 08:27:45;;;;;;;4.90;0.65;;;8.20;99.90;;;;;;5305885;27;20006;-81
2024/04/20 08:30:13;;;;;;;3.70;0.47;;;8.00;99.90;;;;;;5278281;26;20006;-82
2024/04/20 08:32:40;;;;;;;2.08;0.25;;;7.80;99.90;;;;;;5314252;26;20019;-81
2024/04/20 08:35:07;;;;;;;3.22;0.82;;;7.70;99.90;;;;;;5336973;26;20014;-81
2024/04/20 08:37:36;;;;;;;4.35;0.68;;;7.60;99.90;;;;;;5305042;27;20010;-81
2024/04/20 08:40:04;;;;;;;2.20;0.40;;;7.70;99.90;;;;;;5261111;26;20001;-81
2024/04/20 08:42:36;;;;;;;6.40;1.02;;;7.70;99.90;;;;;;5278691;27;20338;-82
2024/04/20 08:45:03;;;;;;;3.05;0.40;;;7.60;99.90;;;;;;5263540;27;20014;-83
2024/04/20 08:47:31;;;;;;;3.40;0.50;;;7.50;99.90;;;;;;5224432;27;20038;-83
2024/04/20 08:50:00;;;;;;;5.05;0.88;;;7.50;99.90;;;;;;5287234;27;20001;-82
2024/04/20 08:52:28;;;;;;;2.67;0.30;;;7.50;99.90;;;;;;5265385;27;20006;-83
2024/04/20 08:54:57;;;;;;;3.90;0.50;;;7.60;99.90;;;;;;5322406;26;20018;-82
2024/04/20 08:57:25;;;;;;;2.13;0.25;;;7.80;99.90;;;;;;5283494;27;20001;-82
2024/04/20 08:59:53;;;;;;;2.05;0.30;;;8.00;99.90;;;;;;5324121;26;20451;-83
2024/04/20 09:02:25;;;;;;;2.30;0.85;;;8.30;99.90;;;;;;5257489;27;19997;-83
2024/04/20 09:04:57;;;;;;;;;;;8.50;99.90;;;;;;5299829;26;20079;-83
2024/04/20 09:07:26;;;;;;;4.20;0.50;;;8.50;99.90;;;;;;5294305;27;19933;-83
2024/04/20 09:09:53;;;;;;;1.85;0.30;;;8.60;99.90;;;;;;5270025;27;20015;-84
2024/04/20 09:12:20;;;;;;;2.92;0.22;;;8.60;99.90;;;;;;5264777;27;20002;-83
2024/04/20 09:14:48;;;;;;;2.25;0.17;;;8.50;99.90;;;;;;5261784;27;20010;-83
2024/04/20 09:17:15;;;;;;;2.72;0.10;;;8.40;99.90;;;;;;5300112;27;20034;-84
2024/04/20 09:19:43;;;;;;;0.35;0.10;;;8.30;99.90;;;;;;5293689;27;20006;-85
2024/04/20 09:22:12;;;;;;;1.17;0.20;;;8.40;99.90;;;;;;5283461;27;20003;-88
2024/04/20 09:24:39;;;;;;;1.30;0.38;;;8.50;99.90;;;;;;5293853;27;20006;-87
2024/04/20 09:27:11;;;;;;;3.00;0.30;;;8.50;99.90;;;;;;5258956;27;20076;-82
2024/04/20 09:29:39;;;;;;;1.67;0.10;;;8.50;99.90;;;;;;5275851;27;20352;-83
2024/04/20 09:32:08;;;;;;;2.47;0.22;;;8.50;99.90;;;;;;5263982;27;20010;-86
2024/04/20 09:34:40;;;;;;;4.97;0.40;;;8.70;99.90;;;;;;5234644;27;20480;-87
2024/04/20 09:37:07;;;;;;;4.07;0.45;;;8.80;99.90;;;;;;5282590;27;20050;-90
2024/04/20 09:39:36;;;;;;;4.35;0.40;;;8.80;99.90;;;;;;5242948;27;20015;-90
2024/04/20 09:42:03;;;;;;;3.40;0.52;;;8.80;99.90;;;;;;5243698;27;19999;-87
2024/04/20 09:44:32;;;;;;;2.58;0.30;;;8.60;99.90;;;;;;5256965;26;20020;-90
2024/04/20 09:47:00;;;;;;;3.10;0.30;;;8.60;99.90;;;;;;5285843;27;20006;-92
2024/04/20 09:49:32;;;;;;;2.60;0.10;;;8.60;99.90;;;;;;5232328;27;20406;-88
2024/04/20 09:52:06;;;;;;;;;;;8.60;99.90;;;;;;5266286;27;20002;-89
2024/04/20 09:54:43;;;;;;;3.35;0.35;;;8.60;99.90;;;;;;5256734;27;19927;-88
2024/04/20 09:57:16;;;;;;;1.92;0.20;;;8.50;99.90;;;;;;5249198;27;20013;-87
2024/04/20 09:59:46;;;;;;;2.13;0.20;;;8.60;99.90;;;;;;5259076;27;20003;-86
2024/04/20 10:02:15;;;;;;;3.08;0.95;;;8.60;99.90;;;;;;5251613;27;20014;-87
2024/04/20 10:04:44;;;;;;;4.70;0.30;;;8.60;99.90;;;;;;5241606;27;20011;-85
2024/04/20 10:07:14;;;;;;;3.30;0.63;;;8.70;99.90;;;;;;5268718;27;20006;-88
2024/04/20 10:09:43;;;;;;;4.55;0.40;;;8.70;99.90;;;;;;5260538;27;20013;-86
2024/04/20 10:12:13;;;;;;;2.08;0.40;;;8.70;99.90;;;;;;5231242;27;20003;-87
2024/04/20 10:14:45;;;;;;;3.83;0.50;;;8.70;99.90;;;;;;5248775;27;20026;-88
2024/04/20 10:17:12;;;;;;;5.00;0.40;;;8.90;99.90;;;;;;5323429;26;20012;-86
2024/04/20 10:19:41;;;;;;;3.25;0.30;;;9.20;99.90;;;;;;5340616;26;20002;-86
2024/04/20 10:22:11;;;;;;;2.88;0.40;;;9.60;99.90;;;;;;5300914;27;19997;-85
2024/04/20 10:24:55;;;;;;;3.85;0.50;;;10.10;99.90;;;;;;5313302;26;20002;-86
2024/04/20 10:27:33;;;;;;;3.10;1.17;;;10.60;99.90;;;;;;5255441;27;20509;-85
2024/04/20 10:30:20;;;;;;;5.30;0.95;;;10.60;99.60;;;;;;5297395;27;20010;-85
2024/04/20 10:32:50;;;;;;;3.40;0.57;;;10.20;99.70;;;;;;5279022;27;20013;-88
2024/04/20 10:35:19;;;;;;;2.15;0.30;;;9.70;99.90;;;;;;5252037;27;20455;-86
2024/04/20 10:38:00;;;;;;;5.10;0.55;;;9.80;99.90;;;;;;5287354;27;20010;-90
2024/04/20 10:40:32;;;;;;;1.60;0.20;;;10.30;99.70;;;;;;5282852;27;20026;-88
2024/04/20 10:43:21;;;;;;;7.43;1.30;;;10.60;99.20;;;;;;5278809;27;20010;-88
2024/04/20 10:46:04;;;;;;;9.07;1.05;;;11.00;98.00;;;;;;5281562;27;20540;-89
2024/04/20 10:48:32;;;;;;;5.75;0.47;;;11.10;97.10;;;;;;5255653;27;20002;-88
2024/04/20 10:51:06;;;;;;;3.30;0.50;;;10.80;97.10;;;;;;5275511;27;20474;-86
2024/04/20 10:53:36;;;;;;;4.45;0.40;;;10.90;97.70;;;;;;5278292;27;20016;-87
2024/04/20 10:56:07;;;;;;;1.45;0.40;;;11.30;97.40;;;;;;5250363;27;20034;-85
2024/04/20 10:58:39;;;;;;;1.48;0.30;;;11.30;97.40;;;;;;5279066;27;20081;-87
2024/04/20 11:01:06;;;;;;;;;;;11.20;97.30;;;;;;5279642;27;20483;-81
2024/04/20 11:03:34;;;;;;;4.72;0.43;;;11.20;97.30;;;;;;5252847;27;20270;-84
2024/04/20 11:06:01;;;;;;;3.92;0.35;;;11.40;97.00;;;;;;5250985;27;20042;-89
2024/04/20 11:08:29;;;;;;;5.60;0.40;;;11.60;96.20;;;;;;5297432;27;20002;-85
2024/04/20 11:11:01;;;;;;;3.03;0.52;;;11.70;96.00;;;;;;5254631;27;20000;-90
2024/04/20 11:13:32;;;;;;;3.22;0.50;;;11.40;95.50;;;;;;5288311;27;19997;-88
2024/04/20 11:15:59;;;;;;;2.60;0.20;;;10.60;96.00;;;;;;5254213;27;20007;-87
2024/04/20 11:18:27;;;;;;;3.15;0.35;;;9.80;97.60;;;;;;5217824;27;20018;-88
2024/04/20 11:20:54;;;;;;;1.45;0.25;;;9.20;98.80;;;;;;5253114;27;20009;-86
2024/04/20 11:23:22;;;;;;;2.13;0.20;;;8.90;99.80;;;;;;5254392;27;20018;-87
2024/04/20 11:25:56;;;;;;;4.38;0.28;;;8.70;99.90;;;;;;5278118;27;20046;-87
2024/04/20 11:28:24;;;;;;;3.05;0.20;;;8.80;99.90;;;;;;5277854;27;20479;-84
2024/04/20 11:30:52;;;;;;;1.80;0.65;;;9.00;99.90;;;;;;5244339;27;20003;-88
2024/04/20 11:33:19;;;;;;;2.67;0.20;;;9.80;99.90;;;;;;5249644;27;20464;-84
2024/04/20 11:35:51;;;;;;;4.55;0.70;;;10.00;99.80;;;;;;5277920;27;20002;-86
2024/04/20 11:38:20;;;;;;;1.63;0.20;;;10.10;99.60;;;;;;5278073;27;19998;-84
2024/04/20 11:40:49;;;;;;;1.92;0.20;;;10.10;99.90;;;;;;5286808;27;20084;-86
2024/04/20 11:43:20;;;;;;;1.17;0.10;;;10.10;99.90;;;;;;5263687;27;20002;-83
2024/04/20 11:45:50;;;;;;;1.27;0.43;;;10.10;99.90;;;;;;5277141;27;20073;-81
2024/04/20 11:48:22;;;;;;;0.82;0.20;;;10.30;99.90;;;;;;5277809;27;20009;-85
2024/04/20 11:51:02;;;;;;;1.08;0.10;;;10.50;99.90;;;;;;5249510;27;20013;-85
2024/04/20 11:56:21;;;;;;;2.78;0.20;;;10.60;99.70;;;;;;5283302;26;20135;-85
2024/04/20 11:58:52;;;;;;;1.60;0.22;;;10.40;99.40;;;;;;5249765;27;20458;-82
2024/04/20 12:01:20;;;;;;;2.78;0.30;;;10.20;99.60;;;;;;5290178;27;20014;-83
2024/04/20 12:03:48;;;;;;;2.40;0.17;;;9.80;99.90;;;;;;5265977;27;20009;-82
2024/04/20 12:06:16;;;;;;;2.05;0.22;;;9.50;99.90;;;;;;5282609;27;20451;-81
2024/04/20 12:08:43;;;;;;;1.13;0.20;;;9.50;99.90;;;;;;5221718;27;20006;-82
2024/04/20 12:11:10;;;;;;;2.35;0.50;;;9.60;99.90;;;;;;5263954;27;20541;-81
2024/04/20 12:13:38;;;;;;;2.17;0.30;;;9.80;99.90;;;;;;5276333;27;20002;-82
2024/04/20 12:16:05;;;;;;;4.70;0.22;;;10.10;99.90;;;;;;5284360;27;20455;-82
2024/04/20 12:18:33;;;;;;;0.75;0.30;;;10.10;99.90;;;;;;5251161;27;20031;-84
2024/04/20 12:21:02;;;;;;;1.42;0.30;;;10.10;99.90;;;;;;5249987;27;20017;-81
2024/04/20 12:23:32;;;;;;;2.20;0.30;;;10.10;99.90;;;;;;5248823;27;20030;-81
2024/04/20 12:25:59;;;;;;;4.60;0.60;;;10.10;99.90;;;;;;5225211;27;20002;-83
2024/04/20 12:28:26;;;;;;;1.00;0.10;;;10.20;99.90;;;;;;5277981;27;20006;-82
2024/04/20 12:30:53;;;;;;;1.05;0.20;;;10.30;99.90;;;;;;5292484;27;20380;-83
2024/04/20 12:33:20;;;;;;;1.05;0.20;;;10.40;99.90;;;;;;5211228;27;20027;-86
2024/04/20 12:35:49;;;;;;;2.38;0.20;;;10.50;99.90;;;;;;5308019;27;20002;-83
2024/04/20 12:38:16;;;;;;;3.53;0.40;;;10.30;99.90;;;;;;5303773;27;20013;-83
2024/04/20 12:40:46;;;;;;;2.75;0.20;;;10.00;99.90;;;;;;5273761;27;20010;-82
2024/04/20 12:43:16;;;;;;;4.53;0.43;;;9.80;99.90;;;;;;5330932;26;20009;-81
2024/04/20 12:45:45;;;;;;;3.60;0.25;;;9.50;99.90;;;;;;5223206;27;20007;-81
2024/04/20 12:48:12;;;;;;;1.45;0.47;;;9.30;99.90;;;;;;5276658;27;20374;-81
2024/04/20 12:50:40;;;;;;;3.63;0.30;;;9.20;99.90;;;;;;5260459;27;20010;-81
2024/04/20 12:53:07;;;;;;;2.88;0.50;;;9.30;99.90;;;;;;5286591;27;20013;-82
2024/04/20 12:55:34;;;;;;;5.82;0.60;;;9.60;99.90;;;;;;5276836;27;20003;-82
2024/04/20 12:58:01;;;;;;;2.38;0.30;;;9.90;99.90;;;;;;5304942;27;19999;-84
2024/04/20 13:00:28;;;;;;;6.80;0.98;;;10.00;99.90;;;;;;5222801;27;20018;-88
2024/04/20 13:02:55;;;;;;;2.47;0.73;;;10.10;99.90;;;;;;5221222;27;20436;-83
2024/04/20 13:05:23;;;;;;;3.22;0.60;;;10.20;99.90;;;;;;5251999;27;20006;-87